Time;durP1;ratioP1;P1;durP2;ratioP2;P2;SDS_P1;SDS_P2;PMS_P1;PMS_P2;Temp;Humidity;BMP_temperature;BMP_pressure;BME280_temperature;BME280_humidity;BME280_pressure;Samples;Min_cycle;Max_cycle;Signal;HPM_P1;HPM_P2
2021/12/30 00:02:06;;;;;;;1.70;1.50;;;;;;;;;;4778598;30;20535;-89
2021/12/30 00:05:11;;;;;;;1.63;1.50;;;;;;;;;;4768009;30;20186;-92
2021/12/30 00:08:15;;;;;;;2.27;1.87;;;;;;;;;;4778640;30;20205;-88
2021/12/30 00:11:19;;;;;;;1.80;1.60;;;;;;;;;;4768176;30;20214;-92
2021/12/30 00:14:23;;;;;;;2.63;1.90;;;;;;;;;;4768655;30;20189;-92
2021/12/30 00:17:28;;;;;;;2.23;2.00;;;;;;;;;;4768305;30;20229;-90
2021/12/30 00:20:32;;;;;;;2.93;1.93;;;;;;;;;;4774547;30;20201;-91
2021/12/30 00:23:37;;;;;;;3.63;2.40;;;;;;;;;;4768179;30;20190;-91
2021/12/30 00:26:41;;;;;;;2.50;2.30;;;;;;;;;;4766916;30;20236;-90
2021/12/30 00:29:45;;;;;;;2.20;1.90;;;;;;;;;;4777779;30;20567;-91
2021/12/30 00:32:49;;;;;;;2.83;2.20;;;;;;;;;;4768407;30;20197;-92
2021/12/30 00:35:54;;;;;;;2.93;2.07;;;;;;;;;;4767857;30;20228;-91
2021/12/30 00:38:58;;;;;;;2.43;2.03;;;;;;;;;;4740030;30;20190;-89
2021/12/30 00:42:02;;;;;;;2.27;2.07;;;;;;;;;;4770585;30;20178;-90
2021/12/30 00:45:07;;;;;;;3.47;1.90;;;;;;;;;;4758038;30;20201;-91
2021/12/30 00:48:11;;;;;;;2.03;1.83;;;;;;;;;;4767522;30;20181;-90
2021/12/30 00:51:16;;;;;;;2.77;2.20;;;;;;;;;;4762074;30;20524;-91
2021/12/30 00:54:20;;;;;;;3.63;2.00;;;;;;;;;;4767986;30;20639;-91
2021/12/30 00:57:24;;;;;;;2.27;1.80;;;;;;;;;;4771857;30;20233;-92
2021/12/30 01:00:31;;;;;;;2.13;1.73;;;;;;;;;;4768187;30;20186;-90
2021/12/30 01:04:31;;;;;;;2.40;1.97;;;;;;;;;;4780065;30;20213;-91
2021/12/30 01:07:36;;;;;;;1.80;1.50;;;;;;;;;;4767556;30;20186;-92
2021/12/30 01:10:41;;;;;;;3.00;1.70;;;;;;;;;;4757083;30;20649;-90
2021/12/30 01:13:50;;;;;;;4.17;1.37;;;;;;;;;;4777405;30;20209;-90
2021/12/30 01:16:59;;;;;;;1.20;1.10;;;;;;;;;;4767033;30;20697;-89
2021/12/30 01:20:03;;;;;;;1.57;1.00;;;;;;;;;;4760563;30;20202;-91
2021/12/30 01:23:07;;;;;;;1.10;1.00;;;;;;;;;;4771296;30;20186;-89
2021/12/30 01:26:12;;;;;;;1.90;1.23;;;;;;;;;;4771365;30;20240;-91
2021/12/30 01:29:16;;;;;;;1.40;1.03;;;;;;;;;;4775686;30;20190;-92
2021/12/30 01:32:20;;;;;;;1.20;1.00;;;;;;;;;;4770811;30;20201;-91
2021/12/30 01:35:25;;;;;;;1.80;1.20;;;;;;;;;;4770969;30;20194;-91
2021/12/30 01:38:29;;;;;;;1.37;1.20;;;;;;;;;;4767256;30;20214;-91
2021/12/30 01:41:33;;;;;;;1.93;1.53;;;;;;;;;;4769937;30;20186;-92
2021/12/30 01:44:38;;;;;;;1.60;1.50;;;;;;;;;;4772839;30;20198;-91
2021/12/30 01:47:49;;;;;;;1.90;1.70;;;;;;;;;;4763788;30;20189;-92
2021/12/30 01:50:54;;;;;;;2.77;1.20;;;;;;;;;;4756337;30;20202;-92
2021/12/30 01:53:58;;;;;;;1.27;1.10;;;;;;;;;;4770559;30;20189;-91
2021/12/30 01:57:04;;;;;;;2.03;1.03;;;;;;;;;;4769405;30;20701;-90
2021/12/30 02:00:12;;;;;;;0.93;0.87;;;;;;;;;;4766676;30;20214;-92
2021/12/30 02:03:18;;;;;;;1.47;1.00;;;;;;;;;;4780657;30;20190;-91
2021/12/30 02:06:22;;;;;;;3.23;1.30;;;;;;;;;;4771615;30;20233;-92
2021/12/30 02:09:28;;;;;;;1.20;1.10;;;;;;;;;;4781087;30;20193;-91
2021/12/30 02:12:35;;;;;;;1.73;0.90;;;;;;;;;;4772493;30;20206;-93
2021/12/30 02:15:39;;;;;;;3.03;0.97;;;;;;;;;;4769966;30;20225;-91
2021/12/30 02:18:44;;;;;;;0.80;0.80;;;;;;;;;;4762408;30;20218;-90
2021/12/30 02:21:48;;;;;;;3.43;0.77;;;;;;;;;;4764659;30;20210;-91
2021/12/30 02:24:52;;;;;;;0.67;0.57;;;;;;;;;;4774492;30;20543;-91
2021/12/30 02:27:56;;;;;;;0.57;0.57;;;;;;;;;;4782886;30;20183;-90
2021/12/30 02:31:07;;;;;;;0.60;0.60;;;;;;;;;;4772350;30;20190;-89
2021/12/30 02:34:12;;;;;;;0.50;0.50;;;;;;;;;;4772430;30;20199;-91
2021/12/30 02:37:18;;;;;;;0.50;0.50;;;;;;;;;;4771934;30;20226;-89
2021/12/30 02:40:27;;;;;;;0.83;0.80;;;;;;;;;;4762595;30;20202;-91
2021/12/30 02:43:35;;;;;;;1.93;1.10;;;;;;;;;;4769881;30;20197;-89
2021/12/30 02:46:54;;;;;;;1.27;1.17;;;;;;;;;;4770143;30;20233;-90
2021/12/30 02:50:23;;;;;;;1.37;1.10;;;;;;;;;;4783680;30;20194;-90
2021/12/30 02:53:28;;;;;;;1.33;1.23;;;;;;;;;;4771603;30;20190;-91
2021/12/30 02:56:33;;;;;;;1.30;1.13;;;;;;;;;;4770034;30;20229;-90
2021/12/30 02:59:37;;;;;;;2.10;1.20;;;;;;;;;;4769681;30;20225;-90
2021/12/30 03:02:43;;;;;;;2.47;1.10;;;;;;;;;;4769421;30;20193;-89
2021/12/30 03:06:00;;;;;;;1.43;1.00;;;;;;;;;;4769253;30;20705;-89
2021/12/30 03:09:17;;;;;;;1.13;0.90;;;;;;;;;;4779328;30;20197;-89
2021/12/30 03:12:21;;;;;;;1.83;1.00;;;;;;;;;;4769257;30;20186;-89
2021/12/30 03:24:13;;;;;;;1.00;0.90;;;;;;;;;;4772392;30;20198;-90
2021/12/30 03:27:22;;;;;;;1.17;1.00;;;;;;;;;;4779660;30;20721;-90
2021/12/30 03:30:28;;;;;;;1.40;0.63;;;;;;;;;;4779375;30;20194;-89
2021/12/30 03:33:33;;;;;;;1.13;0.83;;;;;;;;;;4769073;30;20646;-90
2021/12/30 03:37:04;;;;;;;2.50;0.90;;;;;;;;;;4771226;30;20229;-90
2021/12/30 03:40:13;;;;;;;3.60;0.70;;;;;;;;;;4768729;30;20182;-90
2021/12/30 03:43:18;;;;;;;1.93;0.80;;;;;;;;;;4768584;30;20197;-89
2021/12/30 03:46:23;;;;;;;0.80;0.70;;;;;;;;;;4768580;30;20563;-90
2021/12/30 03:49:28;;;;;;;0.93;0.67;;;;;;;;;;4768585;30;20189;-90
2021/12/30 03:52:39;;;;;;;0.90;0.70;;;;;;;;;;4778430;30;20190;-90
2021/12/30 03:55:46;;;;;;;2.47;0.70;;;;;;;;;;4756529;30;20233;-89
2021/12/30 03:58:51;;;;;;;1.07;0.70;;;;;;;;;;4768263;30;20217;-89
2021/12/30 04:01:55;;;;;;;1.20;0.63;;;;;;;;;;4768377;30;20193;-89
2021/12/30 04:05:00;;;;;;;0.87;0.70;;;;;;;;;;4768230;30;20181;-90
2021/12/30 04:08:07;;;;;;;1.90;0.70;;;;;;;;;;4768066;30;20181;-91
2021/12/30 04:11:11;;;;;;;3.60;0.67;;;;;;;;;;4750338;30;20187;-91
2021/12/30 04:14:15;;;;;;;2.63;0.70;;;;;;;;;;4759745;30;20557;-91
2021/12/30 04:17:22;;;;;;;1.00;0.90;;;;;;;;;;4759729;30;20221;-91
2021/12/30 04:20:27;;;;;;;1.03;0.93;;;;;;;;;;4760829;30;20186;-90
2021/12/30 04:23:32;;;;;;;2.87;0.80;;;;;;;;;;4740274;30;20635;-91
2021/12/30 04:26:35;;;;;;;0.83;0.70;;;;;;;;;;4749838;30;20706;-91
2021/12/30 04:29:39;;;;;;;5.20;0.93;;;;;;;;;;4767254;30;20206;-91
2021/12/30 04:32:44;;;;;;;1.33;0.63;;;;;;;;;;4770469;30;20214;-89
2021/12/30 04:35:50;;;;;;;1.87;0.97;;;;;;;;;;4756807;30;20229;-90
2021/12/30 04:38:54;;;;;;;3.10;1.10;;;;;;;;;;4762782;30;20583;-92
2021/12/30 04:41:59;;;;;;;4.13;0.77;;;;;;;;;;4780222;30;20190;-93
2021/12/30 04:45:04;;;;;;;2.70;1.23;;;;;;;;;;4768042;30;20205;-90
2021/12/30 04:48:09;;;;;;;1.00;0.60;;;;;;;;;;4757622;30;20201;-91
2021/12/30 04:51:13;;;;;;;1.07;0.80;;;;;;;;;;4768175;30;20189;-92
2021/12/30 04:54:18;;;;;;;2.40;0.90;;;;;;;;;;4767988;30;20206;-89
2021/12/30 04:57:32;;;;;;;2.20;0.73;;;;;;;;;;4779388;30;20206;-90
2021/12/30 05:00:41;;;;;;;1.13;0.77;;;;;;;;;;4746212;30;20195;-91
2021/12/30 05:03:46;;;;;;;2.23;0.73;;;;;;;;;;4776558;30;20630;-90
2021/12/30 05:07:46;;;;;;;2.70;0.77;;;;;;;;;;4785489;30;20197;-91
2021/12/30 05:10:51;;;;;;;1.93;0.63;;;;;;;;;;4746044;30;20202;-91
2021/12/30 05:13:55;;;;;;;1.17;0.73;;;;;;;;;;4767380;30;20193;-91
2021/12/30 05:17:03;;;;;;;2.97;0.70;;;;;;;;;;4767899;30;20225;-89
2021/12/30 05:20:08;;;;;;;0.90;0.60;;;;;;;;;;4769149;30;20225;-93
2021/12/30 05:23:12;;;;;;;1.33;0.80;;;;;;;;;;4780539;30;20190;-91
2021/12/30 05:26:18;;;;;;;0.73;0.60;;;;;;;;;;4770038;30;20237;-90
2021/12/30 05:29:22;;;;;;;1.20;0.60;;;;;;;;;;4762801;30;20209;-90
2021/12/30 05:32:26;;;;;;;1.10;0.60;;;;;;;;;;4770052;30;20201;-93
2021/12/30 05:35:31;;;;;;;1.80;0.60;;;;;;;;;;4768302;30;20221;-91
2021/12/30 05:38:35;;;;;;;1.73;0.60;;;;;;;;;;4780968;30;20233;-92
2021/12/30 05:41:40;;;;;;;0.67;0.50;;;;;;;;;;4768885;30;20209;-92
2021/12/30 05:49:06;;;;;;;2.67;0.60;;;;;;;;;;4796634;30;20197;-93
2021/12/30 05:52:11;;;;;;;1.33;0.60;;;;;;;;;;4766377;30;20848;-91
2021/12/30 05:55:16;;;;;;;1.20;0.60;;;;;;;;;;4767893;30;20194;-92
2021/12/30 05:58:20;;;;;;;0.50;0.43;;;;;;;;;;4766734;30;20214;-90
2021/12/30 06:01:25;;;;;;;1.73;0.70;;;;;;;;;;4768660;30;20209;-92
2021/12/30 06:04:29;;;;;;;1.00;0.50;;;;;;;;;;4752200;30;20209;-91
2021/12/30 06:07:33;;;;;;;2.43;0.60;;;;;;;;;;4751614;30;20206;-92
2021/12/30 06:10:37;;;;;;;0.50;0.43;;;;;;;;;;4743098;30;20539;-90
2021/12/30 06:13:43;;;;;;;1.23;0.60;;;;;;;;;;4753900;30;20186;-90
2021/12/30 06:16:47;;;;;;;1.53;0.50;;;;;;;;;;4767511;30;20709;-91
2021/12/30 06:19:51;;;;;;;2.03;0.60;;;;;;;;;;4766871;30;20225;-89
2021/12/30 06:23:02;;;;;;;1.93;0.70;;;;;;;;;;4770128;30;20189;-90
2021/12/30 06:26:06;;;;;;;0.87;0.53;;;;;;;;;;4765353;30;20238;-90
2021/12/30 06:29:10;;;;;;;0.60;0.40;;;;;;;;;;4761387;29;20197;-92
2021/12/30 06:32:14;;;;;;;1.53;0.50;;;;;;;;;;4769506;30;20202;-91
2021/12/30 06:35:19;;;;;;;1.00;0.70;;;;;;;;;;4777950;30;20201;-91
2021/12/30 06:38:23;;;;;;;0.73;0.53;;;;;;;;;;4755139;30;20194;-92
2021/12/30 06:41:27;;;;;;;0.40;0.40;;;;;;;;;;4765940;30;20206;-90
2021/12/30 06:44:31;;;;;;;0.70;0.50;;;;;;;;;;4777034;30;20197;-93
2021/12/30 06:47:35;;;;;;;0.50;0.50;;;;;;;;;;4760274;30;20661;-91
2021/12/30 06:50:41;;;;;;;2.40;0.50;;;;;;;;;;4767292;30;20182;-90
2021/12/30 06:53:46;;;;;;;1.60;0.70;;;;;;;;;;4756657;30;20647;-93
2021/12/30 06:56:54;;;;;;;0.50;0.50;;;;;;;;;;4759202;29;20221;-91
2021/12/30 06:59:58;;;;;;;2.40;0.70;;;;;;;;;;4780729;29;20210;-93
2021/12/30 07:03:02;;;;;;;1.33;0.50;;;;;;;;;;4782148;29;20218;-90
2021/12/30 07:06:07;;;;;;;47.90;26.73;;;;;;;;;;4759849;30;20229;-91
2021/12/30 07:09:16;;;;;;;5.27;4.30;;;;;;;;;;4763682;30;20194;-91
2021/12/30 07:12:46;;;;;;;2.93;2.43;;;;;;;;;;4772648;30;20181;-92
2021/12/30 07:15:50;;;;;;;1.33;0.87;;;;;;;;;;4776085;30;20217;-93
2021/12/30 07:18:56;;;;;;;1.37;0.60;;;;;;;;;;4770611;30;20225;-92
2021/12/30 07:22:00;;;;;;;1.40;0.60;;;;;;;;;;4774120;29;20195;-91
2021/12/30 07:25:05;;;;;;;1.27;0.83;;;;;;;;;;4754533;30;20205;-92
2021/12/30 07:28:10;;;;;;;4.07;3.10;;;;;;;;;;4763291;30;20194;-92
2021/12/30 07:31:14;;;;;;;1.00;1.00;;;;;;;;;;4763434;30;20190;-89
2021/12/30 07:34:18;;;;;;;1.73;1.63;;;;;;;;;;4768307;30;20206;-92
2021/12/30 07:37:22;;;;;;;1.93;1.00;;;;;;;;;;4777890;30;20221;-90
2021/12/30 07:40:27;;;;;;;3.40;1.37;;;;;;;;;;4764563;30;20213;-89
2021/12/30 07:43:32;;;;;;;2.10;1.30;;;;;;;;;;4766436;30;20201;-89
2021/12/30 07:46:36;;;;;;;2.40;2.20;;;;;;;;;;4768449;30;20705;-91
2021/12/30 07:49:40;;;;;;;2.10;1.90;;;;;;;;;;4778704;30;20190;-88
2021/12/30 07:52:45;;;;;;;6.00;3.43;;;;;;;;;;4768566;30;20193;-89
2021/12/30 07:55:50;;;;;;;1.90;1.47;;;;;;;;;;4757899;30;20229;-89
2021/12/30 07:58:54;;;;;;;2.23;1.70;;;;;;;;;;4768399;30;20369;-91
2021/12/30 08:01:59;;;;;;;2.17;1.93;;;;;;;;;;4768109;30;20202;-89
2021/12/30 08:05:04;;;;;;;8.67;3.70;;;;;;;;;;4767964;30;20544;-90
2021/12/30 08:08:08;;;;;;;5.07;4.67;;;;;;;;;;4767397;30;20190;-91
2021/12/30 08:11:12;;;;;;;8.50;7.77;;;;;;;;;;4776450;30;20186;-91
2021/12/30 08:14:16;;;;;;;3.07;2.83;;;;;;;;;;4762470;30;20198;-91
2021/12/30 08:17:21;;;;;;;3.27;2.97;;;;;;;;;;4767972;30;20698;-91
2021/12/30 08:20:27;;;;;;;4.77;4.27;;;;;;;;;;4768056;30;20217;-94
2021/12/30 08:23:31;;;;;;;7.07;6.47;;;;;;;;;;4767799;30;20563;-92
2021/12/30 08:26:35;;;;;;;22.07;19.97;;;;;;;;;;4767320;30;20709;-93
2021/12/30 08:29:41;;;;;;;23.80;21.20;;;;;;;;;;4767438;29;20213;-93
2021/12/30 08:32:46;;;;;;;8.77;8.07;;;;;;;;;;4755864;30;20229;-93
2021/12/30 08:35:50;;;;;;;3.60;3.30;;;;;;;;;;4753591;30;20233;-91
2021/12/30 08:38:54;;;;;;;3.10;2.30;;;;;;;;;;4767738;30;20209;-93
2021/12/30 08:41:59;;;;;;;2.20;1.70;;;;;;;;;;4761445;30;20679;-91
2021/12/30 08:45:05;;;;;;;2.50;1.70;;;;;;;;;;4757735;30;20543;-90
2021/12/30 08:48:09;;;;;;;1.67;1.37;;;;;;;;;;4767952;30;20193;-92
2021/12/30 08:51:13;;;;;;;1.57;1.40;;;;;;;;;;4754834;30;20653;-92
2021/12/30 08:54:17;;;;;;;1.97;1.87;;;;;;;;;;4754532;30;20556;-92
2021/12/30 08:57:24;;;;;;;5.47;1.20;;;;;;;;;;4768555;30;20225;-93
2021/12/30 09:00:31;;;;;;;2.23;1.17;;;;;;;;;;4766626;30;20221;-91
2021/12/30 09:03:35;;;;;;;1.67;1.50;;;;;;;;;;4767423;30;20231;-90
2021/12/30 09:06:40;;;;;;;1.87;1.67;;;;;;;;;;4762988;30;20229;-91
2021/12/30 09:09:47;;;;;;;2.13;1.20;;;;;;;;;;4778457;30;20527;-92
2021/12/30 09:12:52;;;;;;;1.07;0.93;;;;;;;;;;4767070;30;20190;-92
2021/12/30 09:15:56;;;;;;;1.33;1.00;;;;;;;;;;4767673;30;20229;-90
2021/12/30 09:19:01;;;;;;;1.53;0.83;;;;;;;;;;4779850;29;20200;-91
2021/12/30 09:22:04;;;;;;;1.00;0.87;;;;;;;;;;4750325;30;20194;-91
2021/12/30 09:25:10;;;;;;;2.97;0.93;;;;;;;;;;4770389;30;20190;-92
2021/12/30 09:28:15;;;;;;;1.43;1.03;;;;;;;;;;4769967;30;20190;-91
2021/12/30 09:31:19;;;;;;;0.60;0.60;;;;;;;;;;4759928;30;20187;-92
2021/12/30 09:34:23;;;;;;;1.17;1.07;;;;;;;;;;4761108;30;20186;-88
2021/12/30 09:37:27;;;;;;;2.93;0.77;;;;;;;;;;4769892;30;20230;-88
2021/12/30 09:40:31;;;;;;;1.13;0.77;;;;;;;;;;4776492;30;20213;-89
2021/12/30 09:43:35;;;;;;;2.53;0.73;;;;;;;;;;4769852;30;20193;-85
2021/12/30 09:46:39;;;;;;;2.40;1.17;;;;;;;;;;4770287;30;20221;-86
2021/12/30 09:49:45;;;;;;;3.77;2.20;;;;;;;;;;4769982;30;20194;-85
2021/12/30 09:52:50;;;;;;;1.30;0.97;;;;;;;;;;4770353;30;20190;-89
2021/12/30 09:55:57;;;;;;;2.07;1.20;;;;;;;;;;4764155;30;20580;-86
2021/12/30 09:59:01;;;;;;;0.87;0.80;;;;;;;;;;4779883;30;20201;-88
2021/12/30 10:02:05;;;;;;;0.83;0.70;;;;;;;;;;4766432;30;20190;-87
2021/12/30 10:05:17;;;;;;;1.00;0.87;;;;;;;;;;4752252;30;20679;-89
2021/12/30 10:08:25;;;;;;;0.93;0.83;;;;;;;;;;4762653;30;20191;-90
2021/12/30 10:11:29;;;;;;;1.93;1.10;;;;;;;;;;4776291;30;20205;-87
2021/12/30 10:14:37;;;;;;;2.67;1.10;;;;;;;;;;4749701;30;20563;-89
2021/12/30 10:17:42;;;;;;;0.80;0.70;;;;;;;;;;4757690;30;20190;-88
2021/12/30 10:20:47;;;;;;;0.80;0.80;;;;;;;;;;4772572;30;20214;-87
2021/12/30 10:23:56;;;;;;;1.00;0.50;;;;;;;;;;4772709;30;20195;-89
2021/12/30 10:27:01;;;;;;;0.97;0.70;;;;;;;;;;4772519;30;20706;-87
2021/12/30 10:30:06;;;;;;;1.00;0.73;;;;;;;;;;4768335;30;20197;-88
2021/12/30 10:33:17;;;;;;;0.90;0.67;;;;;;;;;;4763714;30;20550;-88
2021/12/30 10:36:25;;;;;;;1.07;0.83;;;;;;;;;;4770081;30;20229;-90
2021/12/30 10:39:33;;;;;;;1.80;0.60;;;;;;;;;;4779336;30;20202;-88
2021/12/30 10:42:40;;;;;;;0.80;0.73;;;;;;;;;;4770237;30;20182;-88
2021/12/30 10:46:10;;;;;;;1.10;1.00;;;;;;;;;;4770000;30;20225;-88
2021/12/30 10:49:26;;;;;;;0.63;0.60;;;;;;;;;;4779095;30;20202;-88
2021/12/30 10:52:30;;;;;;;0.90;0.70;;;;;;;;;;4778094;30;20202;-88
2021/12/30 10:55:34;;;;;;;0.40;0.40;;;;;;;;;;4779438;30;20689;-88
2021/12/30 10:58:38;;;;;;;0.90;0.50;;;;;;;;;;4769197;30;20198;-89
2021/12/30 11:01:52;;;;;;;0.87;0.50;;;;;;;;;;4768666;30;20221;-88
2021/12/30 11:05:04;;;;;;;0.77;0.60;;;;;;;;;;4768429;30;20206;-89
2021/12/30 11:08:24;;;;;;;4.93;2.97;;;;;;;;;;4769004;30;20189;-89
2021/12/30 11:11:29;;;;;;;7.07;4.83;;;;;;;;;;4768940;30;20543;-90
2021/12/30 11:14:37;;;;;;;1.77;1.57;;;;;;;;;;4769721;30;20189;-89
2021/12/30 11:17:41;;;;;;;2.60;2.40;;;;;;;;;;4778794;30;20193;-88
2021/12/30 11:20:47;;;;;;;1.70;1.40;;;;;;;;;;4762310;30;20217;-89
2021/12/30 11:24:34;;;;;;;0.70;0.50;;;;;;;;;;4774666;30;20206;-90
2021/12/30 11:28:35;;;;;;;1.83;1.20;;;;;;;;;;4746395;30;20206;-89
2021/12/30 11:46:04;;;;;;;1.90;0.93;;;;;;;;;;4777311;30;20244;-89
2021/12/30 11:49:10;;;;;;;1.93;0.70;;;;;;;;;;4772906;30;20532;-89
2021/12/30 11:52:48;;;;;;;0.70;0.70;;;;;;;;;;4767971;30;20206;-89
2021/12/30 17:14:12;;;;;;;;;;;;;;;;;;;;;
2021/12/30 17:23:20;;;;;;;4.20;1.70;;;;;;;;;;4805902;24;20240;-85
2021/12/30 17:26:25;;;;;;;1.77;1.50;;;;;;;;;;4777496;30;20197;-85
2021/12/30 17:29:31;;;;;;;2.07;1.70;;;;;;;;;;4777386;30;20189;-85
2021/12/30 17:32:36;;;;;;;3.33;2.80;;;;;;;;;;4777069;30;20225;-85
2021/12/30 17:35:40;;;;;;;2.47;1.50;;;;;;;;;;4777368;30;20646;-86
2021/12/30 17:38:45;;;;;;;2.30;2.10;;;;;;;;;;4777353;30;20535;-86
2021/12/30 17:41:50;;;;;;;2.10;1.90;;;;;;;;;;4767187;30;20642;-85
2021/12/30 17:44:54;;;;;;;1.73;1.33;;;;;;;;;;4787341;30;20650;-85
2021/12/30 17:47:58;;;;;;;2.43;1.37;;;;;;;;;;4777391;30;20531;-85
2021/12/30 17:51:04;;;;;;;1.57;1.20;;;;;;;;;;4777044;30;20190;-84
2021/12/30 17:54:32;;;;;;;1.73;1.63;;;;;;;;;;4767168;30;20221;-85
2021/12/30 18:01:08;;;;;;;2.67;1.87;;;;;;;;;;4778278;30;20202;-84
2021/12/30 18:04:12;;;;;;;4.73;2.63;;;;;;;;;;4778564;30;20217;-85
2021/12/30 18:07:16;;;;;;;3.77;1.73;;;;;;;;;;4792282;29;20209;-86
2021/12/30 18:10:23;;;;;;;8.17;5.33;;;;;;;;;;4770580;30;20193;-85
2021/12/30 18:13:29;;;;;;;2.23;1.97;;;;;;;;;;4770149;30;20229;-85
2021/12/30 18:16:35;;;;;;;1.53;1.43;;;;;;;;;;4779975;30;20202;-85
2021/12/30 18:19:40;;;;;;;2.37;2.17;;;;;;;;;;4780408;30;20213;-85
2021/12/30 18:22:45;;;;;;;4.97;4.40;;;;;;;;;;4779631;29;20225;-86
2021/12/30 18:25:49;;;;;;;7.17;6.30;;;;;;;;;;4780176;30;20193;-85
2021/12/30 18:29:18;;;;;;;4.73;2.60;;;;;;;;;;4780180;30;20193;-85
2021/12/30 18:32:51;;;;;;;2.70;0.93;;;;;;;;;;4780426;30;20189;-86
2021/12/30 18:35:58;;;;;;;4.43;1.50;;;;;;;;;;4770132;30;20190;-85
2021/12/30 18:39:04;;;;;;;2.70;1.40;;;;;;;;;;4769533;30;20642;-86
2021/12/30 18:42:12;;;;;;;1.37;1.17;;;;;;;;;;4769847;30;20190;-85
2021/12/30 18:45:18;;;;;;;2.00;1.10;;;;;;;;;;4769768;30;20189;-84
2021/12/30 18:48:27;;;;;;;2.17;1.80;;;;;;;;;;4769977;30;20181;-86
2021/12/30 18:51:33;;;;;;;1.50;1.40;;;;;;;;;;4769352;30;20190;-84
2021/12/30 18:54:38;;;;;;;1.23;1.10;;;;;;;;;;4769495;30;20194;-85
2021/12/30 18:57:45;;;;;;;1.30;1.20;;;;;;;;;;4769371;30;20210;-84
2021/12/30 19:00:51;;;;;;;1.27;1.17;;;;;;;;;;4769449;30;20194;-85
2021/12/30 19:03:56;;;;;;;5.10;1.27;;;;;;;;;;4769589;30;20689;-85
2021/12/30 19:07:01;;;;;;;1.30;1.00;;;;;;;;;;4780105;30;20539;-85
2021/12/30 19:10:06;;;;;;;1.67;1.23;;;;;;;;;;4779321;30;20193;-85
2021/12/30 19:13:15;;;;;;;1.00;0.90;;;;;;;;;;4769870;30;20221;-85
2021/12/30 19:16:27;;;;;;;1.50;1.00;;;;;;;;;;4769245;30;20190;-84
2021/12/30 19:19:31;;;;;;;1.27;1.17;;;;;;;;;;4779412;30;20194;-85
2021/12/30 19:22:36;;;;;;;1.30;0.90;;;;;;;;;;4779475;30;20233;-85
2021/12/30 19:25:40;;;;;;;1.47;1.00;;;;;;;;;;4768894;30;20193;-85
2021/12/30 19:28:45;;;;;;;1.40;1.20;;;;;;;;;;4779154;30;20547;-85
2021/12/30 19:31:59;;;;;;;1.17;1.07;;;;;;;;;;4770559;30;20202;-86
2021/12/30 19:35:07;;;;;;;1.40;1.10;;;;;;;;;;4779534;30;20185;-85
2021/12/30 19:38:33;;;;;;;1.20;1.00;;;;;;;;;;4778786;30;20535;-85
2021/12/30 19:41:45;;;;;;;1.80;0.83;;;;;;;;;;4779345;30;20182;-85
2021/12/30 19:44:52;;;;;;;1.70;1.50;;;;;;;;;;4778880;30;20650;-85
2021/12/30 19:48:01;;;;;;;1.63;1.30;;;;;;;;;;4768556;30;20652;-85
2021/12/30 19:51:09;;;;;;;1.43;1.33;;;;;;;;;;4778821;30;20189;-84
2021/12/30 19:54:15;;;;;;;3.43;1.20;;;;;;;;;;4768064;30;20225;-85
2021/12/30 19:57:20;;;;;;;1.20;1.10;;;;;;;;;;4778566;30;20186;-85
2021/12/30 20:00:29;;;;;;;1.53;1.07;;;;;;;;;;4768340;30;20654;-85
2021/12/30 20:03:34;;;;;;;1.47;1.37;;;;;;;;;;4768623;30;20229;-85
2021/12/30 20:06:39;;;;;;;1.43;1.30;;;;;;;;;;4778161;30;20693;-85
2021/12/30 20:09:43;;;;;;;1.47;1.00;;;;;;;;;;4767936;30;20201;-85
2021/12/30 20:12:48;;;;;;;1.23;1.10;;;;;;;;;;4778169;30;20225;-85
2021/12/30 20:15:54;;;;;;;1.30;1.20;;;;;;;;;;4778198;30;20534;-84
2021/12/30 20:18:58;;;;;;;1.13;1.00;;;;;;;;;;4788664;30;20189;-85
2021/12/30 20:22:02;;;;;;;1.23;0.97;;;;;;;;;;4767552;30;20209;-86
2021/12/30 20:25:08;;;;;;;1.30;1.07;;;;;;;;;;4778316;30;20169;-85
2021/12/30 20:28:21;;;;;;;0.60;0.60;;;;;;;;;;4788735;30;20198;-85
2021/12/30 20:31:47;;;;;;;1.03;0.93;;;;;;;;;;4786812;29;20193;-85
2021/12/30 20:34:51;;;;;;;1.40;1.00;;;;;;;;;;4777956;30;20190;-85
2021/12/30 20:37:59;;;;;;;0.70;0.70;;;;;;;;;;4778195;30;20646;-85
2021/12/30 20:41:05;;;;;;;1.90;0.80;;;;;;;;;;4767515;30;20205;-85
2021/12/30 20:44:14;;;;;;;0.90;0.80;;;;;;;;;;4767551;30;20233;-85
2021/12/30 20:47:18;;;;;;;1.80;0.90;;;;;;;;;;4767983;30;20201;-86
2021/12/30 20:50:26;;;;;;;1.77;0.60;;;;;;;;;;4767646;30;20209;-85
2021/12/30 20:53:32;;;;;;;0.70;0.70;;;;;;;;;;4777695;30;20559;-86
2021/12/30 20:56:37;;;;;;;1.00;0.73;;;;;;;;;;4787943;29;20205;-85
2021/12/30 20:59:41;;;;;;;2.63;0.63;;;;;;;;;;4757238;30;20213;-85
2021/12/30 21:02:46;;;;;;;1.23;0.87;;;;;;;;;;4767534;30;20221;-86
2021/12/30 21:05:52;;;;;;;0.67;0.67;;;;;;;;;;4777517;30;20198;-85
2021/12/30 21:08:57;;;;;;;2.20;0.90;;;;;;;;;;4788608;30;20642;-85
2021/12/30 21:12:02;;;;;;;2.03;0.80;;;;;;;;;;4768121;30;20190;-85
2021/12/30 21:15:08;;;;;;;1.73;0.77;;;;;;;;;;4777424;30;20186;-86
2021/12/30 21:18:14;;;;;;;1.93;0.63;;;;;;;;;;4767641;30;20197;-85
2021/12/30 21:21:20;;;;;;;0.90;0.77;;;;;;;;;;4787846;29;20217;-85
2021/12/30 21:24:25;;;;;;;0.70;0.70;;;;;;;;;;4787262;30;20237;-85
2021/12/30 21:27:29;;;;;;;1.03;0.93;;;;;;;;;;4777447;30;20209;-85
2021/12/30 21:30:35;;;;;;;0.90;0.80;;;;;;;;;;4788059;29;20205;-85
2021/12/30 21:33:41;;;;;;;3.23;0.80;;;;;;;;;;4777155;30;20225;-85
2021/12/30 21:36:46;;;;;;;1.40;0.90;;;;;;;;;;4777537;30;20190;-85
2021/12/30 21:39:50;;;;;;;2.37;0.90;;;;;;;;;;4780896;30;20190;-85
2021/12/30 21:42:54;;;;;;;1.00;0.90;;;;;;;;;;4780507;30;20229;-85
2021/12/30 21:46:00;;;;;;;1.30;0.97;;;;;;;;;;4791485;30;20189;-85
2021/12/30 21:49:04;;;;;;;1.20;0.80;;;;;;;;;;4780781;30;20185;-85
2021/12/30 21:52:08;;;;;;;1.97;0.77;;;;;;;;;;4790576;30;20185;-84
2021/12/30 21:55:15;;;;;;;1.73;0.90;;;;;;;;;;4771064;30;20185;-87
2021/12/30 21:58:19;;;;;;;0.90;0.70;;;;;;;;;;4780736;30;20190;-87
2021/12/30 22:01:23;;;;;;;1.27;0.90;;;;;;;;;;4780216;30;20194;-87
2021/12/30 22:04:27;;;;;;;1.17;0.80;;;;;;;;;;4770190;30;20574;-86
2021/12/30 22:07:32;;;;;;;3.03;0.80;;;;;;;;;;4780320;30;20202;-84
2021/12/30 22:10:40;;;;;;;1.00;0.90;;;;;;;;;;4780589;30;20531;-86
2021/12/30 22:13:45;;;;;;;1.00;0.80;;;;;;;;;;4780089;30;20217;-85
2021/12/30 22:16:51;;;;;;;2.40;0.90;;;;;;;;;;4770254;30;20181;-85
2021/12/30 22:20:00;;;;;;;1.37;1.10;;;;;;;;;;4790910;30;20186;-85
2021/12/30 22:23:24;;;;;;;0.80;0.60;;;;;;;;;;4790456;29;20555;-86
2021/12/30 22:26:30;;;;;;;1.90;0.80;;;;;;;;;;4780205;30;20198;-86
2021/12/30 22:30:03;;;;;;;1.77;0.80;;;;;;;;;;4780172;30;20661;-85
2021/12/30 22:33:09;;;;;;;0.83;0.60;;;;;;;;;;4779673;30;20221;-86
2021/12/30 22:36:19;;;;;;;0.83;0.70;;;;;;;;;;4779775;30;20543;-86
2021/12/30 22:39:24;;;;;;;2.47;0.83;;;;;;;;;;4769804;30;20197;-86
2021/12/30 22:42:28;;;;;;;1.37;0.60;;;;;;;;;;4779690;30;20221;-86
2021/12/30 22:45:33;;;;;;;1.00;0.87;;;;;;;;;;4769536;30;20218;-86
2021/12/30 22:48:39;;;;;;;1.70;0.80;;;;;;;;;;4779393;29;20194;-86
2021/12/30 22:51:43;;;;;;;1.60;1.00;;;;;;;;;;4769187;30;20185;-86
2021/12/30 22:54:47;;;;;;;1.00;0.90;;;;;;;;;;4779483;30;20181;-86
2021/12/30 22:57:51;;;;;;;1.83;0.80;;;;;;;;;;4790410;30;20638;-85
2021/12/30 23:00:57;;;;;;;0.80;0.70;;;;;;;;;;4779386;30;20197;-86
2021/12/30 23:04:01;;;;;;;1.47;0.70;;;;;;;;;;4789556;30;20225;-86
2021/12/30 23:07:05;;;;;;;1.00;0.90;;;;;;;;;;4789389;30;20209;-86
2021/12/30 23:10:09;;;;;;;0.63;0.60;;;;;;;;;;4769140;30;20205;-85
2021/12/30 23:13:13;;;;;;;1.37;0.90;;;;;;;;;;4779092;30;20229;-86
2021/12/30 23:16:20;;;;;;;2.83;0.80;;;;;;;;;;4789576;30;20189;-86
2021/12/30 23:19:28;;;;;;;1.20;0.90;;;;;;;;;;4779388;30;20194;-86
